sensor_id;sensor_type;location;lat;lon;timestamp;P1;durP1;ratioP1;P2;durP2;ratioP2
13408;SDS011;6775;49.574;11.170;2023-05-20T00:01:35;3.87;;;3.00;;
13408;SDS011;6775;49.574;11.170;2023-05-20T00:04:03;4.73;;;3.10;;
13408;SDS011;6775;49.574;11.170;2023-05-20T00:06:31;4.80;;;3.30;;
13408;SDS011;6775;49.574;11.170;2023-05-20T00:09:00;3.30;;;3.00;;
13408;SDS011;6775;49.574;11.170;2023-05-20T00:11:28;3.03;;;2.53;;
13408;SDS011;6775;49.574;11.170;2023-05-20T00:13:56;3.37;;;3.07;;
13408;SDS011;6775;49.574;11.170;2023-05-20T00:16:24;4.13;;;3.23;;
13408;SDS011;6775;49.574;11.170;2023-05-20T00:18:53;3.57;;;3.00;;
13408;SDS011;6775;49.574;11.170;2023-05-20T00:21:22;3.90;;;2.73;;
13408;SDS011;6775;49.574;11.170;2023-05-20T00:23:49;3.60;;;3.20;;
13408;SDS011;6775;49.574;11.170;2023-05-20T00:26:17;3.43;;;3.13;;
13408;SDS011;6775;49.574;11.170;2023-05-20T00:28:46;4.43;;;3.37;;
13408;SDS011;6775;49.574;11.170;2023-05-20T00:31:14;3.93;;;3.13;;
13408;SDS011;6775;49.574;11.170;2023-05-20T00:33:42;4.73;;;3.50;;
13408;SDS011;6775;49.574;11.170;2023-05-20T00:36:11;3.93;;;3.23;;
13408;SDS011;6775;49.574;11.170;2023-05-20T00:38:39;3.70;;;3.20;;
13408;SDS011;6775;49.574;11.170;2023-05-20T00:41:07;5.87;;;3.33;;
13408;SDS011;6775;49.574;11.170;2023-05-20T00:43:34;3.20;;;2.90;;
13408;SDS011;6775;49.574;11.170;2023-05-20T00:46:02;5.20;;;3.07;;
13408;SDS011;6775;49.574;11.170;2023-05-20T00:48:32;3.77;;;3.13;;
13408;SDS011;6775;49.574;11.170;2023-05-20T00:51:06;3.30;;;3.00;;
13408;SDS011;6775;49.574;11.170;2023-05-20T00:53:35;4.30;;;3.43;;
13408;SDS011;6775;49.574;11.170;2023-05-20T00:56:03;6.07;;;4.10;;
13408;SDS011;6775;49.574;11.170;2023-05-20T00:58:32;3.43;;;3.13;;
13408;SDS011;6775;49.574;11.170;2023-05-20T01:01:01;4.90;;;3.30;;
13408;SDS011;6775;49.574;11.170;2023-05-20T01:03:29;4.67;;;4.10;;
13408;SDS011;6775;49.574;11.170;2023-05-20T01:05:58;3.87;;;3.40;;
13408;SDS011;6775;49.574;11.170;2023-05-20T01:08:26;3.83;;;3.53;;
13408;SDS011;6775;49.574;11.170;2023-05-20T01:10:57;4.20;;;3.43;;
13408;SDS011;6775;49.574;11.170;2023-05-20T01:13:31;4.53;;;3.60;;
13408;SDS011;6775;49.574;11.170;2023-05-20T01:16:09;3.60;;;3.20;;
13408;SDS011;6775;49.574;11.170;2023-05-20T01:18:38;4.57;;;3.30;;
13408;SDS011;6775;49.574;11.170;2023-05-20T01:21:10;4.73;;;3.40;;
13408;SDS011;6775;49.574;11.170;2023-05-20T01:23:41;3.70;;;3.40;;
13408;SDS011;6775;49.574;11.170;2023-05-20T01:26:09;3.50;;;3.20;;
13408;SDS011;6775;49.574;11.170;2023-05-20T01:28:39;4.33;;;3.43;;
13408;SDS011;6775;49.574;11.170;2023-05-20T01:31:11;4.30;;;3.60;;
13408;SDS011;6775;49.574;11.170;2023-05-20T01:33:44;4.60;;;3.57;;
13408;SDS011;6775;49.574;11.170;2023-05-20T01:36:17;4.60;;;4.17;;
13408;SDS011;6775;49.574;11.170;2023-05-20T01:38:47;3.57;;;3.20;;
13408;SDS011;6775;49.574;11.170;2023-05-20T01:41:17;3.90;;;3.50;;
13408;SDS011;6775;49.574;11.170;2023-05-20T01:43:45;4.43;;;4.03;;
13408;SDS011;6775;49.574;11.170;2023-05-20T01:46:14;4.43;;;4.03;;
13408;SDS011;6775;49.574;11.170;2023-05-20T01:48:42;4.27;;;3.87;;
13408;SDS011;6775;49.574;11.170;2023-05-20T01:51:10;4.67;;;3.97;;
13408;SDS011;6775;49.574;11.170;2023-05-20T01:53:38;4.50;;;4.00;;
13408;SDS011;6775;49.574;11.170;2023-05-20T01:56:07;4.67;;;3.63;;
13408;SDS011;6775;49.574;11.170;2023-05-20T01:58:35;4.30;;;3.90;;
13408;SDS011;6775;49.574;11.170;2023-05-20T02:01:03;4.60;;;3.93;;
13408;SDS011;6775;49.574;11.170;2023-05-20T02:03:32;3.80;;;3.50;;
13408;SDS011;6775;49.574;11.170;2023-05-20T02:05:59;4.87;;;3.70;;
13408;SDS011;6775;49.574;11.170;2023-05-20T02:08:28;4.87;;;4.40;;
13408;SDS011;6775;49.574;11.170;2023-05-20T02:10:56;4.47;;;3.87;;
13408;SDS011;6775;49.574;11.170;2023-05-20T02:13:25;4.40;;;4.00;;
13408;SDS011;6775;49.574;11.170;2023-05-20T02:15:53;4.20;;;3.40;;
13408;SDS011;6775;49.574;11.170;2023-05-20T02:18:21;4.10;;;3.53;;
13408;SDS011;6775;49.574;11.170;2023-05-20T02:20:51;4.73;;;3.93;;
13408;SDS011;6775;49.574;11.170;2023-05-20T02:23:19;3.83;;;3.47;;
13408;SDS011;6775;49.574;11.170;2023-05-20T02:25:47;4.37;;;3.97;;
13408;SDS011;6775;49.574;11.170;2023-05-20T02:28:15;5.53;;;3.73;;
13408;SDS011;6775;49.574;11.170;2023-05-20T02:30:45;5.43;;;4.00;;
13408;SDS011;6775;49.574;11.170;2023-05-20T02:33:13;4.00;;;3.63;;
13408;SDS011;6775;49.574;11.170;2023-05-20T02:35:41;4.53;;;3.80;;
13408;SDS011;6775;49.574;11.170;2023-05-20T02:38:09;4.73;;;4.10;;
13408;SDS011;6775;49.574;11.170;2023-05-20T02:40:37;4.40;;;4.00;;
13408;SDS011;6775;49.574;11.170;2023-05-20T02:43:05;4.57;;;4.17;;
13408;SDS011;6775;49.574;11.170;2023-05-20T02:45:33;4.57;;;3.70;;
13408;SDS011;6775;49.574;11.170;2023-05-20T02:48:03;4.30;;;3.87;;
13408;SDS011;6775;49.574;11.170;2023-05-20T02:50:31;4.20;;;3.80;;
13408;SDS011;6775;49.574;11.170;2023-05-20T02:52:59;4.53;;;3.80;;
13408;SDS011;6775;49.574;11.170;2023-05-20T02:55:27;4.57;;;3.70;;
13408;SDS011;6775;49.574;11.170;2023-05-20T02:57:55;4.23;;;3.83;;
13408;SDS011;6775;49.574;11.170;2023-05-20T03:00:23;4.23;;;3.80;;
13408;SDS011;6775;49.574;11.170;2023-05-20T03:02:53;4.57;;;3.57;;
13408;SDS011;6775;49.574;11.170;2023-05-20T03:05:23;4.03;;;3.63;;
13408;SDS011;6775;49.574;11.170;2023-05-20T03:07:52;5.20;;;4.63;;
13408;SDS011;6775;49.574;11.170;2023-05-20T03:10:20;4.17;;;3.80;;
13408;SDS011;6775;49.574;11.170;2023-05-20T03:12:48;6.17;;;3.97;;
13408;SDS011;6775;49.574;11.170;2023-05-20T03:15:16;5.47;;;4.13;;
13408;SDS011;6775;49.574;11.170;2023-05-20T03:17:44;4.23;;;3.80;;
13408;SDS011;6775;49.574;11.170;2023-05-20T03:20:12;4.07;;;3.70;;
13408;SDS011;6775;49.574;11.170;2023-05-20T03:22:43;3.90;;;3.50;;
13408;SDS011;6775;49.574;11.170;2023-05-20T03:25:11;4.13;;;3.73;;
13408;SDS011;6775;49.574;11.170;2023-05-20T03:27:39;4.57;;;4.13;;
13408;SDS011;6775;49.574;11.170;2023-05-20T03:30:08;5.57;;;4.50;;
13408;SDS011;6775;49.574;11.170;2023-05-20T03:32:36;5.37;;;4.67;;
13408;SDS011;6775;49.574;11.170;2023-05-20T03:35:05;4.77;;;4.30;;
13408;SDS011;6775;49.574;11.170;2023-05-20T03:37:34;5.87;;;4.93;;
13408;SDS011;6775;49.574;11.170;2023-05-20T03:40:03;5.33;;;4.77;;
13408;SDS011;6775;49.574;11.170;2023-05-20T03:42:32;5.70;;;5.00;;
13408;SDS011;6775;49.574;11.170;2023-05-20T03:45:00;5.50;;;5.00;;
13408;SDS011;6775;49.574;11.170;2023-05-20T03:47:29;6.80;;;5.50;;
13408;SDS011;6775;49.574;11.170;2023-05-20T03:49:57;5.60;;;5.00;;
13408;SDS011;6775;49.574;11.170;2023-05-20T03:52:24;5.30;;;4.80;;
13408;SDS011;6775;49.574;11.170;2023-05-20T03:54:52;6.03;;;5.20;;
13408;SDS011;6775;49.574;11.170;2023-05-20T03:57:22;6.90;;;5.53;;
13408;SDS011;6775;49.574;11.170;2023-05-20T03:59:50;5.77;;;5.20;;
13408;SDS011;6775;49.574;11.170;2023-05-20T04:02:18;7.27;;;5.60;;
13408;SDS011;6775;49.574;11.170;2023-05-20T04:04:47;6.30;;;5.70;;
13408;SDS011;6775;49.574;11.170;2023-05-20T04:07:18;5.73;;;5.20;;
13408;SDS011;6775;49.574;11.170;2023-05-20T04:09:45;6.00;;;5.40;;
13408;SDS011;6775;49.574;11.170;2023-05-20T04:12:13;6.77;;;5.67;;
13408;SDS011;6775;49.574;11.170;2023-05-20T04:14:45;5.90;;;5.30;;
13408;SDS011;6775;49.574;11.170;2023-05-20T04:17:15;6.77;;;5.03;;
13408;SDS011;6775;49.574;11.170;2023-05-20T04:19:43;6.77;;;5.70;;
13408;SDS011;6775;49.574;11.170;2023-05-20T04:22:11;5.70;;;5.07;;
13408;SDS011;6775;49.574;11.170;2023-05-20T04:24:39;7.37;;;5.80;;
13408;SDS011;6775;49.574;11.170;2023-05-20T04:27:07;6.17;;;5.47;;
13408;SDS011;6775;49.574;11.170;2023-05-20T04:29:36;8.73;;;5.83;;
13408;SDS011;6775;49.574;11.170;2023-05-20T04:32:08;6.70;;;5.87;;
13408;SDS011;6775;49.574;11.170;2023-05-20T04:34:36;6.00;;;5.40;;
13408;SDS011;6775;49.574;11.170;2023-05-20T04:37:04;6.53;;;5.60;;
13408;SDS011;6775;49.574;11.170;2023-05-20T04:39:32;7.20;;;5.93;;
13408;SDS011;6775;49.574;11.170;2023-05-20T04:42:01;5.80;;;4.93;;
13408;SDS011;6775;49.574;11.170;2023-05-20T04:44:30;7.77;;;5.60;;
13408;SDS011;6775;49.574;11.170;2023-05-20T04:46:58;7.07;;;6.37;;
13408;SDS011;6775;49.574;11.170;2023-05-20T04:49:27;7.77;;;6.20;;
13408;SDS011;6775;49.574;11.170;2023-05-20T04:51:55;7.83;;;6.40;;
13408;SDS011;6775;49.574;11.170;2023-05-20T04:54:23;6.53;;;5.83;;
13408;SDS011;6775;49.574;11.170;2023-05-20T04:56:51;7.97;;;6.23;;
13408;SDS011;6775;49.574;11.170;2023-05-20T04:59:19;8.67;;;7.00;;
13408;SDS011;6775;49.574;11.170;2023-05-20T05:01:47;6.20;;;5.60;;
13408;SDS011;6775;49.574;11.170;2023-05-20T05:04:15;8.80;;;6.37;;
13408;SDS011;6775;49.574;11.170;2023-05-20T05:06:44;8.43;;;6.27;;
13408;SDS011;6775;49.574;11.170;2023-05-20T05:09:14;6.50;;;5.87;;
13408;SDS011;6775;49.574;11.170;2023-05-20T05:11:42;8.47;;;6.40;;
13408;SDS011;6775;49.574;11.170;2023-05-20T05:14:10;8.00;;;6.73;;
13408;SDS011;6775;49.574;11.170;2023-05-20T05:16:38;7.40;;;6.37;;
13408;SDS011;6775;49.574;11.170;2023-05-20T05:19:06;7.77;;;6.53;;
13408;SDS011;6775;49.574;11.170;2023-05-20T05:21:34;6.87;;;6.17;;
13408;SDS011;6775;49.574;11.170;2023-05-20T05:24:03;6.80;;;6.03;;
13408;SDS011;6775;49.574;11.170;2023-05-20T05:26:31;8.00;;;6.73;;
13408;SDS011;6775;49.574;11.170;2023-05-20T05:28:59;8.60;;;7.17;;
13408;SDS011;6775;49.574;11.170;2023-05-20T05:31:27;7.60;;;6.37;;
13408;SDS011;6775;49.574;11.170;2023-05-20T05:33:55;9.33;;;6.70;;
13408;SDS011;6775;49.574;11.170;2023-05-20T05:36:23;7.77;;;6.40;;
13408;SDS011;6775;49.574;11.170;2023-05-20T05:38:51;6.80;;;5.90;;
13408;SDS011;6775;49.574;11.170;2023-05-20T05:41:20;6.80;;;6.10;;
13408;SDS011;6775;49.574;11.170;2023-05-20T05:43:48;8.13;;;6.60;;
13408;SDS011;6775;49.574;11.170;2023-05-20T05:46:16;7.03;;;5.97;;
13408;SDS011;6775;49.574;11.170;2023-05-20T05:48:44;8.53;;;6.70;;
13408;SDS011;6775;49.574;11.170;2023-05-20T05:51:14;7.47;;;6.67;;
13408;SDS011;6775;49.574;11.170;2023-05-20T05:53:42;7.77;;;6.97;;
13408;SDS011;6775;49.574;11.170;2023-05-20T05:56:10;8.03;;;6.87;;
13408;SDS011;6775;49.574;11.170;2023-05-20T05:58:39;7.93;;;6.53;;
13408;SDS011;6775;49.574;11.170;2023-05-20T06:01:07;7.20;;;6.37;;
13408;SDS011;6775;49.574;11.170;2023-05-20T06:03:36;8.20;;;6.93;;
13408;SDS011;6775;49.574;11.170;2023-05-20T06:06:04;7.40;;;6.67;;
13408;SDS011;6775;49.574;11.170;2023-05-20T06:08:32;8.07;;;7.03;;
13408;SDS011;6775;49.574;11.170;2023-05-20T06:11:00;8.80;;;7.40;;
13408;SDS011;6775;49.574;11.170;2023-05-20T06:13:28;7.60;;;6.57;;
13408;SDS011;6775;49.574;11.170;2023-05-20T06:15:57;7.17;;;6.47;;
13408;SDS011;6775;49.574;11.170;2023-05-20T06:18:25;6.60;;;6.00;;
13408;SDS011;6775;49.574;11.170;2023-05-20T06:20:53;7.57;;;6.83;;
13408;SDS011;6775;49.574;11.170;2023-05-20T06:23:22;7.83;;;6.63;;
13408;SDS011;6775;49.574;11.170;2023-05-20T06:25:50;7.43;;;6.57;;
13408;SDS011;6775;49.574;11.170;2023-05-20T06:28:19;8.03;;;6.00;;
13408;SDS011;6775;49.574;11.170;2023-05-20T06:30:47;7.93;;;6.73;;
13408;SDS011;6775;49.574;11.170;2023-05-20T06:33:16;7.60;;;6.80;;
13408;SDS011;6775;49.574;11.170;2023-05-20T06:35:45;8.43;;;7.00;;
13408;SDS011;6775;49.574;11.170;2023-05-20T06:38:13;6.83;;;6.17;;
13408;SDS011;6775;49.574;11.170;2023-05-20T06:40:41;8.07;;;6.67;;
13408;SDS011;6775;49.574;11.170;2023-05-20T06:43:09;6.97;;;6.30;;
13408;SDS011;6775;49.574;11.170;2023-05-20T06:45:37;6.83;;;6.17;;
13408;SDS011;6775;49.574;11.170;2023-05-20T06:48:06;8.03;;;6.67;;
13408;SDS011;6775;49.574;11.170;2023-05-20T06:50:35;8.17;;;6.47;;
13408;SDS011;6775;49.574;11.170;2023-05-20T06:53:04;6.77;;;6.07;;
13408;SDS011;6775;49.574;11.170;2023-05-20T06:55:32;7.93;;;7.13;;
13408;SDS011;6775;49.574;11.170;2023-05-20T06:58:00;7.33;;;6.43;;
13408;SDS011;6775;49.574;11.170;2023-05-20T07:00:28;7.13;;;6.13;;
13408;SDS011;6775;49.574;11.170;2023-05-20T07:02:56;7.10;;;6.40;;
13408;SDS011;6775;49.574;11.170;2023-05-20T07:05:24;7.00;;;6.40;;
13408;SDS011;6775;49.574;11.170;2023-05-20T07:07:55;7.43;;;6.30;;
13408;SDS011;6775;49.574;11.170;2023-05-20T07:10:23;6.30;;;5.67;;
13408;SDS011;6775;49.574;11.170;2023-05-20T07:12:51;7.33;;;6.47;;
13408;SDS011;6775;49.574;11.170;2023-05-20T07:15:19;6.47;;;5.70;;
13408;SDS011;6775;49.574;11.170;2023-05-20T07:17:47;6.97;;;6.27;;
13408;SDS011;6775;49.574;11.170;2023-05-20T07:20:15;7.60;;;6.40;;
13408;SDS011;6775;49.574;11.170;2023-05-20T07:22:43;8.00;;;6.53;;
13408;SDS011;6775;49.574;11.170;2023-05-20T07:25:14;7.87;;;6.67;;
13408;SDS011;6775;49.574;11.170;2023-05-20T07:27:42;8.43;;;6.70;;
13408;SDS011;6775;49.574;11.170;2023-05-20T07:30:11;7.63;;;6.80;;
13408;SDS011;6775;49.574;11.170;2023-05-20T07:32:39;7.83;;;6.67;;
13408;SDS011;6775;49.574;11.170;2023-05-20T07:35:07;6.30;;;5.70;;
13408;SDS011;6775;49.574;11.170;2023-05-20T07:37:35;7.40;;;6.70;;
13408;SDS011;6775;49.574;11.170;2023-05-20T07:40:04;8.73;;;6.77;;
13408;SDS011;6775;49.574;11.170;2023-05-20T07:42:35;7.93;;;6.73;;
13408;SDS011;6775;49.574;11.170;2023-05-20T07:45:03;6.80;;;6.07;;
13408;SDS011;6775;49.574;11.170;2023-05-20T07:47:31;6.47;;;5.87;;
13408;SDS011;6775;49.574;11.170;2023-05-20T07:49:59;8.97;;;6.60;;
13408;SDS011;6775;49.574;11.170;2023-05-20T07:52:27;8.60;;;6.60;;
13408;SDS011;6775;49.574;11.170;2023-05-20T07:55:04;7.40;;;6.30;;
13408;SDS011;6775;49.574;11.170;2023-05-20T07:57:32;6.47;;;5.77;;
13408;SDS011;6775;49.574;11.170;2023-05-20T08:00:01;6.63;;;5.87;;
13408;SDS011;6775;49.574;11.170;2023-05-20T08:02:31;6.50;;;5.90;;
13408;SDS011;6775;49.574;11.170;2023-05-20T08:04:59;7.10;;;6.40;;
13408;SDS011;6775;49.574;11.170;2023-05-20T08:07:27;6.60;;;5.77;;
13408;SDS011;6775;49.574;11.170;2023-05-20T08:09:55;7.77;;;6.97;;
13408;SDS011;6775;49.574;11.170;2023-05-20T08:12:23;7.30;;;6.60;;
13408;SDS011;6775;49.574;11.170;2023-05-20T08:14:52;6.70;;;6.00;;
13408;SDS011;6775;49.574;11.170;2023-05-20T08:17:21;7.43;;;6.43;;
13408;SDS011;6775;49.574;11.170;2023-05-20T08:19:49;9.40;;;6.70;;
13408;SDS011;6775;49.574;11.170;2023-05-20T08:22:17;7.10;;;6.40;;
13408;SDS011;6775;49.574;11.170;2023-05-20T08:24:45;7.03;;;6.33;;
13408;SDS011;6775;49.574;11.170;2023-05-20T08:27:13;6.43;;;5.83;;
13408;SDS011;6775;49.574;11.170;2023-05-20T08:29:43;7.93;;;6.20;;
13408;SDS011;6775;49.574;11.170;2023-05-20T08:32:11;8.30;;;7.00;;
13408;SDS011;6775;49.574;11.170;2023-05-20T08:34:40;7.27;;;6.40;;
13408;SDS011;6775;49.574;11.170;2023-05-20T08:37:09;7.47;;;6.40;;
13408;SDS011;6775;49.574;11.170;2023-05-20T08:39:37;6.90;;;6.20;;
13408;SDS011;6775;49.574;11.170;2023-05-20T08:42:05;7.53;;;6.07;;
13408;SDS011;6775;49.574;11.170;2023-05-20T08:44:33;6.50;;;5.90;;
13408;SDS011;6775;49.574;11.170;2023-05-20T08:47:02;6.70;;;6.03;;
13408;SDS011;6775;49.574;11.170;2023-05-20T08:49:32;6.47;;;5.87;;
13408;SDS011;6775;49.574;11.170;2023-05-20T08:52:01;6.80;;;6.00;;
13408;SDS011;6775;49.574;11.170;2023-05-20T08:54:32;6.40;;;5.80;;
13408;SDS011;6775;49.574;11.170;2023-05-20T08:57:08;6.57;;;5.87;;
13408;SDS011;6775;49.574;11.170;2023-05-20T08:59:40;6.67;;;6.03;;
13408;SDS011;6775;49.574;11.170;2023-05-20T09:02:09;6.20;;;5.67;;
13408;SDS011;6775;49.574;11.170;2023-05-20T09:04:37;6.50;;;5.90;;
13408;SDS011;6775;49.574;11.170;2023-05-20T09:07:07;6.70;;;6.00;;
13408;SDS011;6775;49.574;11.170;2023-05-20T09:09:35;6.37;;;5.77;;
13408;SDS011;6775;49.574;11.170;2023-05-20T09:12:03;6.17;;;5.57;;
13408;SDS011;6775;49.574;11.170;2023-05-20T09:14:31;6.30;;;5.70;;
13408;SDS011;6775;49.574;11.170;2023-05-20T09:16:59;6.37;;;5.77;;
13408;SDS011;6775;49.574;11.170;2023-05-20T09:19:27;7.00;;;5.73;;
13408;SDS011;6775;49.574;11.170;2023-05-20T09:21:55;6.33;;;5.67;;
13408;SDS011;6775;49.574;11.170;2023-05-20T09:24:25;6.23;;;5.47;;
13408;SDS011;6775;49.574;11.170;2023-05-20T09:26:53;6.30;;;5.77;;
13408;SDS011;6775;49.574;11.170;2023-05-20T09:29:21;7.10;;;6.50;;
13408;SDS011;6775;49.574;11.170;2023-05-20T09:31:49;7.40;;;5.97;;
13408;SDS011;6775;49.574;11.170;2023-05-20T09:34:19;7.47;;;6.57;;
13408;SDS011;6775;49.574;11.170;2023-05-20T09:36:48;6.67;;;5.77;;
13408;SDS011;6775;49.574;11.170;2023-05-20T09:39:18;6.33;;;5.73;;
13408;SDS011;6775;49.574;11.170;2023-05-20T09:41:55;7.07;;;6.13;;
13408;SDS011;6775;49.574;11.170;2023-05-20T09:44:31;6.20;;;5.60;;
13408;SDS011;6775;49.574;11.170;2023-05-20T09:47:01;6.57;;;5.77;;
13408;SDS011;6775;49.574;11.170;2023-05-20T09:49:31;6.13;;;5.53;;
13408;SDS011;6775;49.574;11.170;2023-05-20T09:51:59;6.33;;;5.73;;
13408;SDS011;6775;49.574;11.170;2023-05-20T09:54:29;6.40;;;5.60;;
13408;SDS011;6775;49.574;11.170;2023-05-20T09:56:59;6.03;;;5.43;;
13408;SDS011;6775;49.574;11.170;2023-05-20T09:59:29;6.47;;;5.13;;
13408;SDS011;6775;49.574;11.170;2023-05-20T10:01:58;6.63;;;5.50;;
13408;SDS011;6775;49.574;11.170;2023-05-20T10:04:27;6.57;;;5.90;;
13408;SDS011;6775;49.574;11.170;2023-05-20T10:07:04;7.00;;;6.30;;
13408;SDS011;6775;49.574;11.170;2023-05-20T10:09:53;6.00;;;5.50;;
13408;SDS011;6775;49.574;11.170;2023-05-20T10:12:32;6.87;;;5.33;;
13408;SDS011;6775;49.574;11.170;2023-05-20T10:15:08;6.57;;;5.87;;
13408;SDS011;6775;49.574;11.170;2023-05-20T10:17:45;5.97;;;5.37;;
13408;SDS011;6775;49.574;11.170;2023-05-20T10:20:19;7.73;;;6.40;;
13408;SDS011;6775;49.574;11.170;2023-05-20T10:22:54;6.83;;;6.23;;
13408;SDS011;6775;49.574;11.170;2023-05-20T10:25:23;7.63;;;5.70;;
13408;SDS011;6775;49.574;11.170;2023-05-20T10:28:04;6.73;;;5.83;;
13408;SDS011;6775;49.574;11.170;2023-05-20T10:30:35;6.43;;;5.83;;
13408;SDS011;6775;49.574;11.170;2023-05-20T10:33:06;6.37;;;5.77;;
13408;SDS011;6775;49.574;11.170;2023-05-20T10:35:34;7.13;;;6.17;;
13408;SDS011;6775;49.574;11.170;2023-05-20T10:38:13;6.60;;;5.77;;
13408;SDS011;6775;49.574;11.170;2023-05-20T10:40:41;6.93;;;6.23;;
13408;SDS011;6775;49.574;11.170;2023-05-20T10:43:10;6.70;;;5.93;;
13408;SDS011;6775;49.574;11.170;2023-05-20T10:45:49;5.80;;;5.30;;
13408;SDS011;6775;49.574;11.170;2023-05-20T10:48:19;6.37;;;5.50;;
13408;SDS011;6775;49.574;11.170;2023-05-20T10:50:50;6.33;;;5.73;;
13408;SDS011;6775;49.574;11.170;2023-05-20T10:53:21;6.33;;;5.73;;
13408;SDS011;6775;49.574;11.170;2023-05-20T10:55:59;5.93;;;5.40;;
13408;SDS011;6775;49.574;11.170;2023-05-20T10:58:36;6.67;;;6.07;;
13408;SDS011;6775;49.574;11.170;2023-05-20T11:01:05;7.93;;;5.93;;
13408;SDS011;6775;49.574;11.170;2023-05-20T11:03:37;6.83;;;6.23;;
13408;SDS011;6775;49.574;11.170;2023-05-20T11:06:10;6.43;;;5.83;;
13408;SDS011;6775;49.574;11.170;2023-05-20T11:08:41;7.27;;;6.00;;
13408;SDS011;6775;49.574;11.170;2023-05-20T11:11:09;6.40;;;5.80;;
13408;SDS011;6775;49.574;11.170;2023-05-20T11:13:39;6.57;;;5.93;;
13408;SDS011;6775;49.574;11.170;2023-05-20T11:16:07;6.27;;;5.63;;
13408;SDS011;6775;49.574;11.170;2023-05-20T11:18:36;5.77;;;5.27;;
13408;SDS011;6775;49.574;11.170;2023-05-20T11:21:04;6.70;;;5.83;;
13408;SDS011;6775;49.574;11.170;2023-05-20T11:23:32;6.63;;;6.03;;
13408;SDS011;6775;49.574;11.170;2023-05-20T11:26:00;6.83;;;6.13;;
13408;SDS011;6775;49.574;11.170;2023-05-20T11:28:28;6.07;;;5.47;;
13408;SDS011;6775;49.574;11.170;2023-05-20T11:30:59;6.80;;;5.87;;
13408;SDS011;6775;49.574;11.170;2023-05-20T11:33:28;5.97;;;5.37;;
13408;SDS011;6775;49.574;11.170;2023-05-20T11:35:56;6.10;;;5.50;;
13408;SDS011;6775;49.574;11.170;2023-05-20T11:38:24;7.23;;;6.17;;
13408;SDS011;6775;49.574;11.170;2023-05-20T11:40:53;5.90;;;5.40;;
13408;SDS011;6775;49.574;11.170;2023-05-20T11:43:22;6.00;;;5.50;;
13408;SDS011;6775;49.574;11.170;2023-05-20T11:45:54;6.60;;;6.00;;
13408;SDS011;6775;49.574;11.170;2023-05-20T11:48:26;6.07;;;5.47;;
13408;SDS011;6775;49.574;11.170;2023-05-20T11:50:54;7.17;;;5.93;;
13408;SDS011;6775;49.574;11.170;2023-05-20T11:53:26;6.40;;;5.80;;
13408;SDS011;6775;49.574;11.170;2023-05-20T11:55:55;7.27;;;6.10;;
13408;SDS011;6775;49.574;11.170;2023-05-20T11:58:24;6.77;;;6.13;;
13408;SDS011;6775;49.574;11.170;2023-05-20T12:00:53;7.37;;;6.43;;
13408;SDS011;6775;49.574;11.170;2023-05-20T12:03:40;6.63;;;6.03;;
13408;SDS011;6775;49.574;11.170;2023-05-20T12:06:10;7.50;;;6.33;;
13408;SDS011;6775;49.574;11.170;2023-05-20T12:08:38;7.73;;;6.30;;
13408;SDS011;6775;49.574;11.170;2023-05-20T12:11:06;6.67;;;6.07;;
13408;SDS011;6775;49.574;11.170;2023-05-20T12:13:34;7.43;;;6.17;;
13408;SDS011;6775;49.574;11.170;2023-05-20T12:16:02;7.37;;;6.40;;
13408;SDS011;6775;49.574;11.170;2023-05-20T12:18:31;8.10;;;6.17;;
13408;SDS011;6775;49.574;11.170;2023-05-20T12:21:00;6.47;;;5.87;;
13408;SDS011;6775;49.574;11.170;2023-05-20T12:23:28;9.67;;;6.50;;
13408;SDS011;6775;49.574;11.170;2023-05-20T12:25:59;7.77;;;6.43;;
13408;SDS011;6775;49.574;11.170;2023-05-20T12:28:27;7.60;;;6.80;;
13408;SDS011;6775;49.574;11.170;2023-05-20T12:30:55;7.60;;;6.90;;
13408;SDS011;6775;49.574;11.170;2023-05-20T12:33:23;7.33;;;6.47;;
13408;SDS011;6775;49.574;11.170;2023-05-20T12:35:51;6.93;;;5.77;;
13408;SDS011;6775;49.574;11.170;2023-05-20T12:38:20;5.70;;;5.00;;
13408;SDS011;6775;49.574;11.170;2023-05-20T12:40:48;5.80;;;5.30;;
13408;SDS011;6775;49.574;11.170;2023-05-20T12:43:16;8.20;;;6.50;;
13408;SDS011;6775;49.574;11.170;2023-05-20T12:45:44;7.13;;;6.53;;
13408;SDS011;6775;49.574;11.170;2023-05-20T12:48:12;7.13;;;6.43;;
13408;SDS011;6775;49.574;11.170;2023-05-20T12:50:40;7.13;;;6.30;;
13408;SDS011;6775;49.574;11.170;2023-05-20T12:53:08;6.57;;;5.93;;
13408;SDS011;6775;49.574;11.170;2023-05-20T12:55:37;6.77;;;6.17;;
13408;SDS011;6775;49.574;11.170;2023-05-20T12:58:05;6.57;;;5.93;;
13408;SDS011;6775;49.574;11.170;2023-05-20T13:00:34;6.00;;;5.37;;
13408;SDS011;6775;49.574;11.170;2023-05-20T13:03:02;7.07;;;6.30;;
13408;SDS011;6775;49.574;11.170;2023-05-20T13:05:31;6.93;;;6.00;;
13408;SDS011;6775;49.574;11.170;2023-05-20T13:07:59;6.33;;;5.73;;
13408;SDS011;6775;49.574;11.170;2023-05-20T13:10:27;6.53;;;5.80;;
13408;SDS011;6775;49.574;11.170;2023-05-20T13:12:56;6.70;;;6.00;;
13408;SDS011;6775;49.574;11.170;2023-05-20T13:15:24;6.90;;;5.83;;
13408;SDS011;6775;49.574;11.170;2023-05-20T13:17:52;6.40;;;5.80;;
13408;SDS011;6775;49.574;11.170;2023-05-20T13:20:20;6.77;;;6.17;;
13408;SDS011;6775;49.574;11.170;2023-05-20T13:22:48;6.33;;;5.73;;
13408;SDS011;6775;49.574;11.170;2023-05-20T13:25:16;7.10;;;6.03;;
13408;SDS011;6775;49.574;11.170;2023-05-20T13:27:44;6.10;;;5.60;;
13408;SDS011;6775;49.574;11.170;2023-05-20T13:30:13;5.97;;;5.43;;
13408;SDS011;6775;49.574;11.170;2023-05-20T13:32:41;5.80;;;5.30;;
13408;SDS011;6775;49.574;11.170;2023-05-20T13:35:09;6.03;;;5.53;;
13408;SDS011;6775;49.574;11.170;2023-05-20T13:37:38;6.40;;;5.80;;
13408;SDS011;6775;49.574;11.170;2023-05-20T13:40:06;5.57;;;5.07;;
13408;SDS011;6775;49.574;11.170;2023-05-20T13:42:35;6.00;;;5.50;;
13408;SDS011;6775;49.574;11.170;2023-05-20T13:45:04;5.87;;;5.30;;
13408;SDS011;6775;49.574;11.170;2023-05-20T13:47:33;5.53;;;5.03;;
13408;SDS011;6775;49.574;11.170;2023-05-20T13:50:02;5.43;;;5.00;;
13408;SDS011;6775;49.574;11.170;2023-05-20T13:52:30;6.00;;;5.23;;
13408;SDS011;6775;49.574;11.170;2023-05-20T13:54:58;6.60;;;5.70;;
13408;SDS011;6775;49.574;11.170;2023-05-20T13:57:26;6.27;;;5.67;;
13408;SDS011;6775;49.574;11.170;2023-05-20T13:59:54;7.00;;;5.60;;
13408;SDS011;6775;49.574;11.170;2023-05-20T14:02:22;6.17;;;5.60;;
13408;SDS011;6775;49.574;11.170;2023-05-20T14:04:51;7.07;;;6.47;;
13408;SDS011;6775;49.574;11.170;2023-05-20T14:07:19;6.20;;;5.60;;
13408;SDS011;6775;49.574;11.170;2023-05-20T14:09:47;6.50;;;5.90;;
13408;SDS011;6775;49.574;11.170;2023-05-20T14:12:15;6.47;;;5.87;;
13408;SDS011;6775;49.574;11.170;2023-05-20T14:14:43;7.70;;;5.20;;
13408;SDS011;6775;49.574;11.170;2023-05-20T14:17:11;6.63;;;6.00;;
13408;SDS011;6775;49.574;11.170;2023-05-20T14:19:39;6.60;;;5.40;;
13408;SDS011;6775;49.574;11.170;2023-05-20T14:22:08;6.10;;;5.50;;
13408;SDS011;6775;49.574;11.170;2023-05-20T14:24:39;5.43;;;4.93;;
13408;SDS011;6775;49.574;11.170;2023-05-20T14:27:07;5.73;;;5.23;;
13408;SDS011;6775;49.574;11.170;2023-05-20T14:29:36;5.63;;;5.03;;
13408;SDS011;6775;49.574;11.170;2023-05-20T14:32:04;5.90;;;5.30;;
13408;SDS011;6775;49.574;11.170;2023-05-20T14:34:34;6.00;;;5.50;;
13408;SDS011;6775;49.574;11.170;2023-05-20T14:37:02;6.33;;;5.70;;
13408;SDS011;6775;49.574;11.170;2023-05-20T14:39:36;7.27;;;5.50;;
13408;SDS011;6775;49.574;11.170;2023-05-20T14:42:04;6.33;;;5.73;;
13408;SDS011;6775;49.574;11.170;2023-05-20T14:44:32;5.77;;;5.27;;
13408;SDS011;6775;49.574;11.170;2023-05-20T14:47:00;5.60;;;5.10;;
13408;SDS011;6775;49.574;11.170;2023-05-20T14:49:29;6.07;;;5.47;;
13408;SDS011;6775;49.574;11.170;2023-05-20T14:51:57;5.80;;;5.20;;
13408;SDS011;6775;49.574;11.170;2023-05-20T14:54:25;6.20;;;5.70;;
13408;SDS011;6775;49.574;11.170;2023-05-20T14:56:55;6.60;;;5.43;;
13408;SDS011;6775;49.574;11.170;2023-05-20T14:59:23;5.93;;;5.27;;